sensor_id;sensor_type;location;lat;lon;timestamp;P1;durP1;ratioP1;P2;durP2;ratioP2
54555;SDS011;57291;37.520;15.106;2022-08-11T00:00:03;11.82;;;9.73;;
54555;SDS011;57291;37.520;15.106;2022-08-11T00:02:40;11.18;;;9.50;;
54555;SDS011;57291;37.520;15.106;2022-08-11T00:05:13;11.73;;;9.20;;
54555;SDS011;57291;37.520;15.106;2022-08-11T00:07:43;11.60;;;9.25;;
54555;SDS011;57291;37.520;15.106;2022-08-11T00:10:14;12.30;;;9.32;;
54555;SDS011;57291;37.520;15.106;2022-08-11T00:12:49;15.77;;;10.98;;
54555;SDS011;57291;37.520;15.106;2022-08-11T00:15:37;14.30;;;9.32;;
54555;SDS011;57291;37.520;15.106;2022-08-11T00:18:09;13.43;;;9.88;;
54555;SDS011;57291;37.520;15.106;2022-08-11T00:20:42;11.77;;;9.48;;
54555;SDS011;57291;37.520;15.106;2022-08-11T00:23:12;11.68;;;9.88;;
54555;SDS011;57291;37.520;15.106;2022-08-11T00:25:46;11.15;;;9.18;;
54555;SDS011;57291;37.520;15.106;2022-08-11T00:30:55;12.65;;;9.57;;
54555;SDS011;57291;37.520;15.106;2022-08-11T00:33:31;13.25;;;9.82;;
54555;SDS011;57291;37.520;15.106;2022-08-11T00:36:11;14.32;;;9.13;;
54555;SDS011;57291;37.520;15.106;2022-08-11T00:38:42;12.52;;;9.10;;
54555;SDS011;57291;37.520;15.106;2022-08-11T00:44:06;12.55;;;8.93;;
54555;SDS011;57291;37.520;15.106;2022-08-11T00:52:31;13.13;;;9.55;;
54555;SDS011;57291;37.520;15.106;2022-08-11T00:57:55;11.15;;;8.98;;
54555;SDS011;57291;37.520;15.106;2022-08-11T01:47:16;14.15;;;8.88;;
54555;SDS011;57291;37.520;15.106;2022-08-11T01:53:25;12.35;;;8.23;;
54555;SDS011;57291;37.520;15.106;2022-08-11T01:56:26;11.25;;;8.13;;
54555;SDS011;57291;37.520;15.106;2022-08-11T01:59:13;14.60;;;8.23;;
54555;SDS011;57291;37.520;15.106;2022-08-11T02:05:25;9.48;;;8.27;;
54555;SDS011;57291;37.520;15.106;2022-08-11T02:16:36;10.48;;;7.65;;
54555;SDS011;57291;37.520;15.106;2022-08-11T02:19:27;9.65;;;7.43;;
54555;SDS011;57291;37.520;15.106;2022-08-11T02:27:58;9.77;;;7.65;;
54555;SDS011;57291;37.520;15.106;2022-08-11T02:34:14;8.48;;;7.15;;
54555;SDS011;57291;37.520;15.106;2022-08-11T02:36:51;10.02;;;7.13;;
54555;SDS011;57291;37.520;15.106;2022-08-11T02:39:27;8.60;;;7.28;;
54555;SDS011;57291;37.520;15.106;2022-08-11T03:10:02;8.65;;;7.35;;
54555;SDS011;57291;37.520;15.106;2022-08-11T03:21:53;9.63;;;7.32;;
54555;SDS011;57291;37.520;15.106;2022-08-11T03:24:48;8.52;;;7.28;;
54555;SDS011;57291;37.520;15.106;2022-08-11T03:27:29;15.82;;;8.75;;
54555;SDS011;57291;37.520;15.106;2022-08-11T03:30:06;10.73;;;8.10;;
54555;SDS011;57291;37.520;15.106;2022-08-11T03:39:44;10.32;;;7.10;;
54555;SDS011;57291;37.520;15.106;2022-08-11T04:08:30;11.65;;;9.25;;
54555;SDS011;57291;37.520;15.106;2022-08-11T04:14:09;11.63;;;9.52;;
54555;SDS011;57291;37.520;15.106;2022-08-11T04:22:27;13.30;;;9.32;;
54555;SDS011;57291;37.520;15.106;2022-08-11T04:27:52;10.85;;;8.43;;
54555;SDS011;57291;37.520;15.106;2022-08-11T04:31:06;13.32;;;9.25;;
54555;SDS011;57291;37.520;15.106;2022-08-11T04:48:52;12.27;;;9.88;;
54555;SDS011;57291;37.520;15.106;2022-08-11T04:52:05;12.90;;;9.88;;
54555;SDS011;57291;37.520;15.106;2022-08-11T05:13:11;12.57;;;9.52;;
54555;SDS011;57291;37.520;15.106;2022-08-11T05:16:12;14.07;;;9.70;;
54555;SDS011;57291;37.520;15.106;2022-08-11T05:19:00;13.77;;;9.77;;
54555;SDS011;57291;37.520;15.106;2022-08-11T05:21:54;15.13;;;10.18;;
54555;SDS011;57291;37.520;15.106;2022-08-11T05:24:46;13.65;;;9.85;;
54555;SDS011;57291;37.520;15.106;2022-08-11T05:27:42;13.65;;;10.00;;
54555;SDS011;57291;37.520;15.106;2022-08-11T05:30:37;12.85;;;9.85;;
54555;SDS011;57291;37.520;15.106;2022-08-11T05:33:41;16.45;;;11.50;;
54555;SDS011;57291;37.520;15.106;2022-08-11T05:39:18;15.60;;;10.90;;
54555;SDS011;57291;37.520;15.106;2022-08-11T05:42:07;15.48;;;11.38;;
54555;SDS011;57291;37.520;15.106;2022-08-11T05:48:34;18.20;;;11.15;;
54555;SDS011;57291;37.520;15.106;2022-08-11T05:51:21;13.43;;;9.57;;
54555;SDS011;57291;37.520;15.106;2022-08-11T05:54:25;12.30;;;9.85;;
54555;SDS011;57291;37.520;15.106;2022-08-11T05:57:22;14.27;;;11.45;;
54555;SDS011;57291;37.520;15.106;2022-08-11T06:00:13;16.35;;;10.10;;
54555;SDS011;57291;37.520;15.106;2022-08-11T06:02:42;14.65;;;10.13;;
54555;SDS011;57291;37.520;15.106;2022-08-11T06:05:15;16.75;;;11.18;;
54555;SDS011;57291;37.520;15.106;2022-08-11T06:07:45;16.52;;;11.15;;
54555;SDS011;57291;37.520;15.106;2022-08-11T06:10:28;16.33;;;10.77;;
54555;SDS011;57291;37.520;15.106;2022-08-11T06:12:59;16.85;;;11.15;;
54555;SDS011;57291;37.520;15.106;2022-08-11T06:15:28;16.05;;;10.63;;
54555;SDS011;57291;37.520;15.106;2022-08-11T06:17:58;18.20;;;10.80;;
54555;SDS011;57291;37.520;15.106;2022-08-11T06:20:27;18.45;;;11.32;;
54555;SDS011;57291;37.520;15.106;2022-08-11T06:23:03;17.88;;;10.80;;
54555;SDS011;57291;37.520;15.106;2022-08-11T06:25:32;16.92;;;11.75;;
54555;SDS011;57291;37.520;15.106;2022-08-11T06:28:02;15.95;;;11.05;;
54555;SDS011;57291;37.520;15.106;2022-08-11T06:30:33;17.40;;;10.57;;
54555;SDS011;57291;37.520;15.106;2022-08-11T06:35:59;16.27;;;9.88;;
54555;SDS011;57291;37.520;15.106;2022-08-11T06:38:45;14.18;;;9.32;;
54555;SDS011;57291;37.520;15.106;2022-08-11T06:41:17;17.25;;;10.23;;
54555;SDS011;57291;37.520;15.106;2022-08-11T06:46:50;18.02;;;10.80;;
54555;SDS011;57291;37.520;15.106;2022-08-11T06:49:31;13.98;;;10.10;;
54555;SDS011;57291;37.520;15.106;2022-08-11T06:52:19;14.73;;;10.07;;
54555;SDS011;57291;37.520;15.106;2022-08-11T06:55:05;16.02;;;9.77;;
54555;SDS011;57291;37.520;15.106;2022-08-11T06:57:57;19.02;;;11.00;;
54555;SDS011;57291;37.520;15.106;2022-08-11T07:00:43;17.65;;;11.32;;
54555;SDS011;57291;37.520;15.106;2022-08-11T07:03:17;18.55;;;10.48;;
54555;SDS011;57291;37.520;15.106;2022-08-11T07:08:42;25.40;;;11.80;;
54555;SDS011;57291;37.520;15.106;2022-08-11T07:14:23;19.63;;;9.80;;
54555;SDS011;57291;37.520;15.106;2022-08-11T07:17:18;15.30;;;9.18;;
54555;SDS011;57291;37.520;15.106;2022-08-11T07:19:56;14.80;;;9.10;;
54555;SDS011;57291;37.520;15.106;2022-08-11T07:23:00;10.45;;;8.00;;
54555;SDS011;57291;37.520;15.106;2022-08-11T07:25:51;11.95;;;7.55;;
54555;SDS011;57291;37.520;15.106;2022-08-11T07:28:39;12.02;;;7.80;;
54555;SDS011;57291;37.520;15.106;2022-08-11T07:31:31;12.00;;;7.70;;
54555;SDS011;57291;37.520;15.106;2022-08-11T07:36:53;12.85;;;7.55;;
54555;SDS011;57291;37.520;15.106;2022-08-11T07:39:26;8.40;;;7.53;;
54555;SDS011;57291;37.520;15.106;2022-08-11T07:41:57;9.00;;;7.07;;
54555;SDS011;57291;37.520;15.106;2022-08-11T07:44:30;9.43;;;7.50;;
54555;SDS011;57291;37.520;15.106;2022-08-11T07:47:18;11.15;;;8.00;;
54555;SDS011;57291;37.520;15.106;2022-08-11T07:50:07;10.90;;;7.72;;
54555;SDS011;57291;37.520;15.106;2022-08-11T07:52:54;10.25;;;8.00;;
54555;SDS011;57291;37.520;15.106;2022-08-11T07:55:23;11.00;;;7.00;;
54555;SDS011;57291;37.520;15.106;2022-08-11T07:58:13;10.05;;;8.02;;
54555;SDS011;57291;37.520;15.106;2022-08-11T08:01:21;13.70;;;8.23;;
54555;SDS011;57291;37.520;15.106;2022-08-11T08:04:11;9.50;;;7.97;;
54555;SDS011;57291;37.520;15.106;2022-08-11T08:06:59;9.80;;;7.68;;
54555;SDS011;57291;37.520;15.106;2022-08-11T08:09:48;11.48;;;8.30;;
54555;SDS011;57291;37.520;15.106;2022-08-11T08:12:39;11.00;;;8.50;;
54555;SDS011;57291;37.520;15.106;2022-08-11T08:15:25;13.68;;;9.02;;
54555;SDS011;57291;37.520;15.106;2022-08-11T08:18:12;11.57;;;8.75;;
54555;SDS011;57291;37.520;15.106;2022-08-11T08:20:53;11.20;;;8.82;;
54555;SDS011;57291;37.520;15.106;2022-08-11T08:23:25;14.75;;;8.70;;
54555;SDS011;57291;37.520;15.106;2022-08-11T08:26:01;13.68;;;9.55;;
54555;SDS011;57291;37.520;15.106;2022-08-11T08:28:30;11.77;;;8.90;;
54555;SDS011;57291;37.520;15.106;2022-08-11T08:30:59;12.18;;;8.57;;
54555;SDS011;57291;37.520;15.106;2022-08-11T08:33:27;12.38;;;9.23;;
54555;SDS011;57291;37.520;15.106;2022-08-11T08:35:58;12.77;;;8.20;;
54555;SDS011;57291;37.520;15.106;2022-08-11T08:41:12;14.10;;;8.93;;
54555;SDS011;57291;37.520;15.106;2022-08-11T08:43:46;11.93;;;9.63;;
54555;SDS011;57291;37.520;15.106;2022-08-11T08:46:32;11.73;;;9.00;;
54555;SDS011;57291;37.520;15.106;2022-08-11T08:49:02;11.57;;;8.05;;
54555;SDS011;57291;37.520;15.106;2022-08-11T08:51:31;15.15;;;8.88;;
54555;SDS011;57291;37.520;15.106;2022-08-11T08:56:56;12.87;;;8.63;;
54555;SDS011;57291;37.520;15.106;2022-08-11T08:59:25;12.15;;;8.30;;
54555;SDS011;57291;37.520;15.106;2022-08-11T09:02:13;12.23;;;8.43;;
54555;SDS011;57291;37.520;15.106;2022-08-11T09:04:43;10.98;;;8.35;;
54555;SDS011;57291;37.520;15.106;2022-08-11T09:07:13;14.40;;;8.98;;
54555;SDS011;57291;37.520;15.106;2022-08-11T09:09:49;12.38;;;8.68;;
54555;SDS011;57291;37.520;15.106;2022-08-11T09:12:19;12.30;;;8.63;;
54555;SDS011;57291;37.520;15.106;2022-08-11T09:15:04;14.50;;;9.05;;
54555;SDS011;57291;37.520;15.106;2022-08-11T09:17:38;13.38;;;8.23;;
54555;SDS011;57291;37.520;15.106;2022-08-11T09:20:13;13.95;;;8.82;;
54555;SDS011;57291;37.520;15.106;2022-08-11T09:22:48;13.00;;;8.48;;
54555;SDS011;57291;37.520;15.106;2022-08-11T09:25:56;12.77;;;8.45;;
54555;SDS011;57291;37.520;15.106;2022-08-11T09:28:58;13.95;;;8.73;;
54555;SDS011;57291;37.520;15.106;2022-08-11T09:31:30;12.30;;;8.82;;
54555;SDS011;57291;37.520;15.106;2022-08-11T09:34:05;11.80;;;9.35;;
54555;SDS011;57291;37.520;15.106;2022-08-11T09:36:34;15.57;;;9.18;;
54555;SDS011;57291;37.520;15.106;2022-08-11T09:39:20;11.68;;;8.45;;
54555;SDS011;57291;37.520;15.106;2022-08-11T09:42:06;13.30;;;8.85;;
54555;SDS011;57291;37.520;15.106;2022-08-11T09:44:42;13.25;;;9.13;;
54555;SDS011;57291;37.520;15.106;2022-08-11T09:47:23;13.38;;;9.07;;
54555;SDS011;57291;37.520;15.106;2022-08-11T09:49:57;11.70;;;8.48;;
54555;SDS011;57291;37.520;15.106;2022-08-11T09:52:27;11.75;;;9.32;;
54555;SDS011;57291;37.520;15.106;2022-08-11T09:54:56;10.00;;;8.18;;
54555;SDS011;57291;37.520;15.106;2022-08-11T09:57:24;14.75;;;9.15;;
54555;SDS011;57291;37.520;15.106;2022-08-11T10:00:11;12.60;;;9.07;;
54555;SDS011;57291;37.520;15.106;2022-08-11T10:02:47;13.15;;;9.10;;
54555;SDS011;57291;37.520;15.106;2022-08-11T10:05:16;12.88;;;9.43;;
54555;SDS011;57291;37.520;15.106;2022-08-11T10:08:04;11.15;;;8.77;;
54555;SDS011;57291;37.520;15.106;2022-08-11T10:10:35;12.88;;;9.00;;
54555;SDS011;57291;37.520;15.106;2022-08-11T10:13:08;16.02;;;9.05;;
54555;SDS011;57291;37.520;15.106;2022-08-11T10:16:01;11.75;;;8.85;;
54555;SDS011;57291;37.520;15.106;2022-08-11T10:18:42;15.18;;;9.00;;
54555;SDS011;57291;37.520;15.106;2022-08-11T10:21:26;13.10;;;9.23;;
54555;SDS011;57291;37.520;15.106;2022-08-11T10:24:02;11.57;;;8.73;;
54555;SDS011;57291;37.520;15.106;2022-08-11T10:26:52;13.57;;;9.30;;
54555;SDS011;57291;37.520;15.106;2022-08-11T10:29:21;13.90;;;8.90;;
54555;SDS011;57291;37.520;15.106;2022-08-11T10:32:25;11.05;;;8.95;;
54555;SDS011;57291;37.520;15.106;2022-08-11T10:35:34;11.65;;;9.15;;
54555;SDS011;57291;37.520;15.106;2022-08-11T10:38:03;14.10;;;9.38;;
54555;SDS011;57291;37.520;15.106;2022-08-11T10:40:38;10.52;;;8.55;;
54555;SDS011;57291;37.520;15.106;2022-08-11T10:43:07;12.88;;;9.05;;
54555;SDS011;57291;37.520;15.106;2022-08-11T10:45:59;11.73;;;8.93;;
54555;SDS011;57291;37.520;15.106;2022-08-11T10:48:56;11.45;;;9.30;;
54555;SDS011;57291;37.520;15.106;2022-08-11T10:51:24;15.52;;;9.60;;
54555;SDS011;57291;37.520;15.106;2022-08-11T10:57:05;13.77;;;9.45;;
54555;SDS011;57291;37.520;15.106;2022-08-11T10:59:53;15.45;;;9.90;;
54555;SDS011;57291;37.520;15.106;2022-08-11T11:02:22;13.05;;;9.40;;
54555;SDS011;57291;37.520;15.106;2022-08-11T11:04:57;12.68;;;9.32;;
54555;SDS011;57291;37.520;15.106;2022-08-11T11:07:34;12.48;;;9.95;;
54555;SDS011;57291;37.520;15.106;2022-08-11T11:10:10;14.13;;;8.70;;
54555;SDS011;57291;37.520;15.106;2022-08-11T11:12:43;16.20;;;9.52;;
54555;SDS011;57291;37.520;15.106;2022-08-11T11:15:33;12.48;;;9.05;;
54555;SDS011;57291;37.520;15.106;2022-08-11T11:18:21;11.68;;;9.15;;
54555;SDS011;57291;37.520;15.106;2022-08-11T11:20:56;12.02;;;8.43;;
54555;SDS011;57291;37.520;15.106;2022-08-11T11:29:55;13.23;;;9.13;;
54555;SDS011;57291;37.520;15.106;2022-08-11T11:38:58;10.68;;;7.80;;
54555;SDS011;57291;37.520;15.106;2022-08-11T11:41:27;11.32;;;8.48;;
54555;SDS011;57291;37.520;15.106;2022-08-11T11:43:55;11.27;;;8.93;;
54555;SDS011;57291;37.520;15.106;2022-08-11T11:46:27;11.35;;;9.15;;
54555;SDS011;57291;37.520;15.106;2022-08-11T11:48:56;14.70;;;8.70;;
54555;SDS011;57291;37.520;15.106;2022-08-11T11:51:25;12.77;;;8.88;;
54555;SDS011;57291;37.520;15.106;2022-08-11T11:53:53;13.38;;;9.25;;
54555;SDS011;57291;37.520;15.106;2022-08-11T11:56:21;15.75;;;9.52;;
54555;SDS011;57291;37.520;15.106;2022-08-11T11:58:51;12.45;;;8.75;;
54555;SDS011;57291;37.520;15.106;2022-08-11T12:01:40;14.38;;;9.95;;
54555;SDS011;57291;37.520;15.106;2022-08-11T12:04:17;13.60;;;9.48;;
54555;SDS011;57291;37.520;15.106;2022-08-11T12:06:46;13.45;;;9.30;;
54555;SDS011;57291;37.520;15.106;2022-08-11T12:09:14;13.20;;;10.15;;
54555;SDS011;57291;37.520;15.106;2022-08-11T12:11:44;15.20;;;10.25;;
54555;SDS011;57291;37.520;15.106;2022-08-11T12:14:29;15.55;;;9.93;;
54555;SDS011;57291;37.520;15.106;2022-08-11T12:16:57;14.18;;;9.88;;
54555;SDS011;57291;37.520;15.106;2022-08-11T12:19:25;13.10;;;10.07;;
54555;SDS011;57291;37.520;15.106;2022-08-11T12:22:01;14.45;;;10.50;;
54555;SDS011;57291;37.520;15.106;2022-08-11T12:24:47;15.00;;;10.38;;
54555;SDS011;57291;37.520;15.106;2022-08-11T12:27:33;13.35;;;10.25;;
54555;SDS011;57291;37.520;15.106;2022-08-11T12:30:04;14.32;;;10.23;;
54555;SDS011;57291;37.520;15.106;2022-08-11T12:32:35;14.38;;;9.80;;
54555;SDS011;57291;37.520;15.106;2022-08-11T12:35:05;15.75;;;11.60;;
54555;SDS011;57291;37.520;15.106;2022-08-11T12:37:40;19.73;;;11.60;;
54555;SDS011;57291;37.520;15.106;2022-08-11T12:40:16;15.90;;;11.60;;
54555;SDS011;57291;37.520;15.106;2022-08-11T12:43:26;13.30;;;10.63;;
54555;SDS011;57291;37.520;15.106;2022-08-11T12:46:23;19.80;;;11.52;;
54555;SDS011;57291;37.520;15.106;2022-08-11T12:48:57;16.85;;;11.82;;
54555;SDS011;57291;37.520;15.106;2022-08-11T12:51:49;16.77;;;12.20;;
54555;SDS011;57291;37.520;15.106;2022-08-11T12:54:41;17.90;;;12.75;;
54555;SDS011;57291;37.520;15.106;2022-08-11T12:57:30;21.13;;;13.27;;
54555;SDS011;57291;37.520;15.106;2022-08-11T13:00:20;17.67;;;12.27;;
54555;SDS011;57291;37.520;15.106;2022-08-11T13:03:08;19.85;;;13.30;;
54555;SDS011;57291;37.520;15.106;2022-08-11T13:05:59;19.77;;;12.75;;
54555;SDS011;57291;37.520;15.106;2022-08-11T13:08:30;18.38;;;13.25;;
54555;SDS011;57291;37.520;15.106;2022-08-11T13:11:01;18.65;;;12.18;;
54555;SDS011;57291;37.520;15.106;2022-08-11T13:13:48;20.83;;;12.70;;
54555;SDS011;57291;37.520;15.106;2022-08-11T13:16:33;18.85;;;12.88;;
54555;SDS011;57291;37.520;15.106;2022-08-11T13:19:21;19.88;;;13.27;;
54555;SDS011;57291;37.520;15.106;2022-08-11T13:21:49;17.88;;;12.60;;
54555;SDS011;57291;37.520;15.106;2022-08-11T13:24:19;20.23;;;12.98;;
54555;SDS011;57291;37.520;15.106;2022-08-11T13:26:47;20.85;;;13.88;;
54555;SDS011;57291;37.520;15.106;2022-08-11T13:29:20;17.67;;;12.32;;
54555;SDS011;57291;37.520;15.106;2022-08-11T13:34:17;19.38;;;13.23;;
54555;SDS011;57291;37.520;15.106;2022-08-11T13:36:50;18.90;;;12.02;;
54555;SDS011;57291;37.520;15.106;2022-08-11T13:39:20;19.33;;;12.88;;
54555;SDS011;57291;37.520;15.106;2022-08-11T13:41:55;15.95;;;12.30;;
54555;SDS011;57291;37.520;15.106;2022-08-11T13:44:26;19.17;;;12.90;;
54555;SDS011;57291;37.520;15.106;2022-08-11T13:46:57;21.45;;;13.68;;
54555;SDS011;57291;37.520;15.106;2022-08-11T13:49:27;18.08;;;13.35;;
54555;SDS011;57291;37.520;15.106;2022-08-11T13:51:57;19.85;;;13.15;;
54555;SDS011;57291;37.520;15.106;2022-08-11T13:54:25;19.13;;;13.07;;
54555;SDS011;57291;37.520;15.106;2022-08-11T13:56:56;18.45;;;12.68;;
54555;SDS011;57291;37.520;15.106;2022-08-11T13:59:34;18.50;;;12.48;;
54555;SDS011;57291;37.520;15.106;2022-08-11T14:02:19;17.95;;;12.73;;
54555;SDS011;57291;37.520;15.106;2022-08-11T14:05:17;17.95;;;12.32;;
54555;SDS011;57291;37.520;15.106;2022-08-11T14:07:49;16.63;;;12.65;;
54555;SDS011;57291;37.520;15.106;2022-08-11T14:10:20;21.48;;;12.70;;
54555;SDS011;57291;37.520;15.106;2022-08-11T14:12:56;17.15;;;11.95;;
54555;SDS011;57291;37.520;15.106;2022-08-11T14:15:44;17.25;;;12.30;;
54555;SDS011;57291;37.520;15.106;2022-08-11T14:18:18;16.58;;;12.05;;
54555;SDS011;57291;37.520;15.106;2022-08-11T14:20:51;17.50;;;12.52;;
54555;SDS011;57291;37.520;15.106;2022-08-11T14:23:40;17.92;;;12.35;;
54555;SDS011;57291;37.520;15.106;2022-08-11T14:26:09;17.67;;;11.95;;
54555;SDS011;57291;37.520;15.106;2022-08-11T14:29:11;18.33;;;12.88;;
54555;SDS011;57291;37.520;15.106;2022-08-11T14:31:47;24.38;;;12.45;;
54555;SDS011;57291;37.520;15.106;2022-08-11T14:34:19;18.02;;;11.90;;
54555;SDS011;57291;37.520;15.106;2022-08-11T14:36:53;15.07;;;12.00;;
54555;SDS011;57291;37.520;15.106;2022-08-11T14:39:26;19.38;;;11.88;;
54555;SDS011;57291;37.520;15.106;2022-08-11T14:42:02;16.15;;;11.27;;
54555;SDS011;57291;37.520;15.106;2022-08-11T14:45:08;15.85;;;12.40;;
54555;SDS011;57291;37.520;15.106;2022-08-11T14:48:16;17.90;;;11.65;;
54555;SDS011;57291;37.520;15.106;2022-08-11T14:50:43;16.20;;;12.20;;
54555;SDS011;57291;37.520;15.106;2022-08-11T14:53:12;15.00;;;11.85;;
54555;SDS011;57291;37.520;15.106;2022-08-11T14:55:44;18.00;;;13.10;;
54555;SDS011;57291;37.520;15.106;2022-08-11T14:58:30;17.45;;;12.25;;
54555;SDS011;57291;37.520;15.106;2022-08-11T15:00:59;16.92;;;12.25;;
54555;SDS011;57291;37.520;15.106;2022-08-11T15:03:29;20.35;;;12.90;;
54555;SDS011;57291;37.520;15.106;2022-08-11T15:06:00;21.25;;;12.63;;
54555;SDS011;57291;37.520;15.106;2022-08-11T15:08:32;18.90;;;12.27;;
54555;SDS011;57291;37.520;15.106;2022-08-11T15:11:24;19.83;;;12.50;;
54555;SDS011;57291;37.520;15.106;2022-08-11T15:14:13;19.60;;;12.77;;
54555;SDS011;57291;37.520;15.106;2022-08-11T15:17:06;16.45;;;12.63;;
54555;SDS011;57291;37.520;15.106;2022-08-11T15:19:36;17.13;;;11.75;;
54555;SDS011;57291;37.520;15.106;2022-08-11T15:22:30;16.50;;;12.63;;
54555;SDS011;57291;37.520;15.106;2022-08-11T15:25:16;17.60;;;12.50;;
54555;SDS011;57291;37.520;15.106;2022-08-11T15:27:46;15.55;;;12.43;;
54555;SDS011;57291;37.520;15.106;2022-08-11T15:30:34;17.30;;;12.93;;
54555;SDS011;57291;37.520;15.106;2022-08-11T15:54:22;16.80;;;13.45;;
54555;SDS011;57291;37.520;15.106;2022-08-11T15:56:54;21.92;;;13.05;;
54555;SDS011;57291;37.520;15.106;2022-08-11T15:59:24;19.73;;;12.20;;
54555;SDS011;57291;37.520;15.106;2022-08-11T16:02:13;17.35;;;12.82;;
54555;SDS011;57291;37.520;15.106;2022-08-11T16:05:04;17.85;;;12.23;;
54555;SDS011;57291;37.520;15.106;2022-08-11T16:07:34;17.63;;;12.75;;
54555;SDS011;57291;37.520;15.106;2022-08-11T16:10:11;19.67;;;12.88;;
54555;SDS011;57291;37.520;15.106;2022-08-11T16:12:46;16.88;;;12.30;;
54555;SDS011;57291;37.520;15.106;2022-08-11T16:15:51;17.45;;;12.77;;
54555;SDS011;57291;37.520;15.106;2022-08-11T16:18:44;17.23;;;12.93;;
54555;SDS011;57291;37.520;15.106;2022-08-11T16:21:29;19.05;;;12.85;;
54555;SDS011;57291;37.520;15.106;2022-08-11T16:24:03;19.17;;;12.00;;
54555;SDS011;57291;37.520;15.106;2022-08-11T16:26:34;17.38;;;12.13;;
54555;SDS011;57291;37.520;15.106;2022-08-11T16:29:25;18.17;;;12.35;;
54555;SDS011;57291;37.520;15.106;2022-08-11T16:31:54;18.42;;;12.15;;
54555;SDS011;57291;37.520;15.106;2022-08-11T16:34:42;19.33;;;12.30;;
54555;SDS011;57291;37.520;15.106;2022-08-11T16:37:34;17.52;;;11.88;;
54555;SDS011;57291;37.520;15.106;2022-08-11T16:40:21;19.77;;;11.85;;
54555;SDS011;57291;37.520;15.106;2022-08-11T16:42:50;16.60;;;11.70;;
54555;SDS011;57291;37.520;15.106;2022-08-11T16:45:38;15.40;;;11.15;;
54555;SDS011;57291;37.520;15.106;2022-08-11T16:48:27;18.20;;;11.05;;
54555;SDS011;57291;37.520;15.106;2022-08-11T16:51:04;15.10;;;11.32;;
54555;SDS011;57291;37.520;15.106;2022-08-11T16:53:33;17.20;;;11.95;;
54555;SDS011;57291;37.520;15.106;2022-08-11T16:56:22;14.88;;;11.32;;
54555;SDS011;57291;37.520;15.106;2022-08-11T16:58:54;14.68;;;11.60;;
54555;SDS011;57291;37.520;15.106;2022-08-11T17:01:56;16.85;;;11.70;;
54555;SDS011;57291;37.520;15.106;2022-08-11T17:04:42;14.57;;;11.07;;
54555;SDS011;57291;37.520;15.106;2022-08-11T17:07:36;17.30;;;12.90;;
54555;SDS011;57291;37.520;15.106;2022-08-11T17:10:28;18.20;;;12.25;;
54555;SDS011;57291;37.520;15.106;2022-08-11T17:13:30;16.88;;;11.20;;
54555;SDS011;57291;37.520;15.106;2022-08-11T17:16:32;15.63;;;11.82;;
54555;SDS011;57291;37.520;15.106;2022-08-11T17:19:13;16.08;;;12.10;;
54555;SDS011;57291;37.520;15.106;2022-08-11T17:22:05;16.13;;;12.50;;
54555;SDS011;57291;37.520;15.106;2022-08-11T17:24:51;17.23;;;12.10;;
54555;SDS011;57291;37.520;15.106;2022-08-11T17:27:21;15.25;;;11.45;;
54555;SDS011;57291;37.520;15.106;2022-08-11T17:29:51;12.98;;;11.10;;
54555;SDS011;57291;37.520;15.106;2022-08-11T17:32:32;16.30;;;11.45;;
54555;SDS011;57291;37.520;15.106;2022-08-11T17:35:27;18.73;;;11.90;;
54555;SDS011;57291;37.520;15.106;2022-08-11T17:40:32;16.30;;;11.63;;
54555;SDS011;57291;37.520;15.106;2022-08-11T17:43:07;17.05;;;10.85;;
54555;SDS011;57291;37.520;15.106;2022-08-11T17:45:54;16.08;;;11.35;;
54555;SDS011;57291;37.520;15.106;2022-08-11T17:48:42;16.77;;;11.50;;
54555;SDS011;57291;37.520;15.106;2022-08-11T17:51:16;16.63;;;11.00;;
54555;SDS011;57291;37.520;15.106;2022-08-11T17:54:04;15.88;;;10.40;;
54555;SDS011;57291;37.520;15.106;2022-08-11T17:56:52;16.35;;;11.60;;
54555;SDS011;57291;37.520;15.106;2022-08-11T17:59:47;16.88;;;10.48;;
54555;SDS011;57291;37.520;15.106;2022-08-11T18:02:28;16.25;;;11.18;;
54555;SDS011;57291;37.520;15.106;2022-08-11T18:05:18;14.75;;;11.60;;
54555;SDS011;57291;37.520;15.106;2022-08-11T18:07:47;17.63;;;12.20;;
54555;SDS011;57291;37.520;15.106;2022-08-11T18:10:36;19.73;;;12.95;;
54555;SDS011;57291;37.520;15.106;2022-08-11T18:13:25;16.88;;;12.07;;
54555;SDS011;57291;37.520;15.106;2022-08-11T18:16:13;15.63;;;11.55;;
54555;SDS011;57291;37.520;15.106;2022-08-11T18:18:58;18.55;;;11.85;;
54555;SDS011;57291;37.520;15.106;2022-08-11T18:21:45;20.27;;;11.63;;
54555;SDS011;57291;37.520;15.106;2022-08-11T18:24:49;16.10;;;11.88;;
54555;SDS011;57291;37.520;15.106;2022-08-11T18:27:39;18.02;;;13.00;;
54555;SDS011;57291;37.520;15.106;2022-08-11T18:30:28;17.33;;;12.65;;
54555;SDS011;57291;37.520;15.106;2022-08-11T18:33:32;20.08;;;14.18;;
54555;SDS011;57291;37.520;15.106;2022-08-11T18:37:22;16.60;;;12.63;;
54555;SDS011;57291;37.520;15.106;2022-08-11T18:40:06;21.52;;;15.27;;
54555;SDS011;57291;37.520;15.106;2022-08-11T18:42:56;30.15;;;20.33;;
54555;SDS011;57291;37.520;15.106;2022-08-11T18:45:52;39.63;;;27.52;;
54555;SDS011;57291;37.520;15.106;2022-08-11T18:48:50;21.88;;;13.90;;
54555;SDS011;57291;37.520;15.106;2022-08-11T18:51:42;19.05;;;12.70;;
54555;SDS011;57291;37.520;15.106;2022-08-11T18:54:32;17.13;;;13.48;;
54555;SDS011;57291;37.520;15.106;2022-08-11T18:57:21;18.83;;;14.88;;
54555;SDS011;57291;37.520;15.106;2022-08-11T19:00:19;20.63;;;15.65;;
54555;SDS011;57291;37.520;15.106;2022-08-11T19:03:13;17.55;;;13.57;;
54555;SDS011;57291;37.520;15.106;2022-08-11T19:06:14;21.15;;;14.00;;
54555;SDS011;57291;37.520;15.106;2022-08-11T19:09:11;16.70;;;12.73;;
54555;SDS011;57291;37.520;15.106;2022-08-11T19:12:01;19.13;;;13.13;;
54555;SDS011;57291;37.520;15.106;2022-08-11T19:14:48;27.38;;;18.13;;
54555;SDS011;57291;37.520;15.106;2022-08-11T19:17:38;21.88;;;14.93;;
54555;SDS011;57291;37.520;15.106;2022-08-11T19:20:27;31.60;;;21.92;;
54555;SDS011;57291;37.520;15.106;2022-08-11T19:23:16;22.10;;;15.85;;
54555;SDS011;57291;37.520;15.106;2022-08-11T19:26:05;19.88;;;14.50;;
54555;SDS011;57291;37.520;15.106;2022-08-11T19:28:52;19.20;;;14.43;;
54555;SDS011;57291;37.520;15.106;2022-08-11T19:31:59;16.83;;;13.18;;
54555;SDS011;57291;37.520;15.106;2022-08-11T19:34:46;18.23;;;13.65;;
54555;SDS011;57291;37.520;15.106;2022-08-11T19:37:33;19.90;;;13.98;;
54555;SDS011;57291;37.520;15.106;2022-08-11T19:40:20;21.95;;;13.90;;
54555;SDS011;57291;37.520;15.106;2022-08-11T19:43:06;17.45;;;13.60;;
54555;SDS011;57291;37.520;15.106;2022-08-11T19:45:55;16.17;;;13.55;;
54555;SDS011;57291;37.520;15.106;2022-08-11T19:48:44;18.55;;;13.73;;
54555;SDS011;57291;37.520;15.106;2022-08-11T19:51:34;24.17;;;14.27;;
54555;SDS011;57291;37.520;15.106;2022-08-11T19:54:22;23.70;;;15.07;;
54555;SDS011;57291;37.520;15.106;2022-08-11T19:57:12;21.75;;;15.82;;
54555;SDS011;57291;37.520;15.106;2022-08-11T20:00:07;19.85;;;14.93;;
54555;SDS011;57291;37.520;15.106;2022-08-11T20:02:58;19.75;;;15.40;;
54555;SDS011;57291;37.520;15.106;2022-08-11T20:05:46;22.75;;;15.50;;
54555;SDS011;57291;37.520;15.106;2022-08-11T20:08:33;21.50;;;14.68;;